createdAt,value
2018-09-13T00:00:51.907Z,14.53
2018-09-13T00:01:51.876Z,14.49
2018-09-13T00:02:51.850Z,14.52
2018-09-13T00:03:51.825Z,14.48
2018-09-13T00:04:51.798Z,14.44
2018-09-13T00:05:51.830Z,14.44
2018-09-13T00:06:51.745Z,14.44
2018-09-13T00:07:51.725Z,14.39
2018-09-13T00:08:51.692Z,14.41
2018-09-13T00:09:51.664Z,14.35
2018-09-13T00:10:51.638Z,14.31
2018-09-13T00:11:51.614Z,14.41
2018-09-13T00:12:51.585Z,14.36
2018-09-13T00:13:51.559Z,14.21
2018-09-13T00:14:51.532Z,14.19
2018-09-13T00:15:51.513Z,14.19
2018-09-13T00:16:51.479Z,14.21
2018-09-13T00:17:51.451Z,14.21
2018-09-13T00:18:51.428Z,14.13
2018-09-13T00:19:51.396Z,14.21
2018-09-13T00:20:51.380Z,14.24
2018-09-13T00:21:51.342Z,14.19
2018-09-13T00:22:51.316Z,14.19
2018-09-13T00:23:51.291Z,14.09
2018-09-13T00:24:51.265Z,14.08
2018-09-13T00:25:51.237Z,14.12
2018-09-13T00:26:51.209Z,14.11
2018-09-13T00:27:51.182Z,14.12
2018-09-13T00:28:51.159Z,14.20
2018-09-13T00:29:51.129Z,14.20
2018-09-13T00:30:51.103Z,14.09
2018-09-13T00:31:51.077Z,14.09
2018-09-13T00:32:51.054Z,14.05
2018-09-13T00:33:51.021Z,14.11
2018-09-13T00:34:50.996Z,13.98
2018-09-13T00:35:50.969Z,14.09
2018-09-13T00:36:50.942Z,13.99
2018-09-13T00:37:50.915Z,14.05
2018-09-13T00:38:50.888Z,14.06
2018-09-13T00:39:50.862Z,14.04
2018-09-13T00:40:50.835Z,14.06
2018-09-13T00:41:50.810Z,14.02
2018-09-13T00:42:50.784Z,14.04
2018-09-13T00:43:50.758Z,14.11
2018-09-13T00:44:50.729Z,14.13
2018-09-13T00:45:50.706Z,14.09
2018-09-13T00:46:50.676Z,14.06
2018-09-13T00:47:50.648Z,14.11
2018-09-13T00:48:50.622Z,14.12
2018-09-13T00:49:50.594Z,13.99
2018-09-13T00:50:50.569Z,13.99
2018-09-13T00:51:50.541Z,14.08
2018-09-13T00:52:50.520Z,14.05
2018-09-13T00:53:50.487Z,13.96
2018-09-13T00:54:50.462Z,13.98
2018-09-13T00:55:50.434Z,14.04
2018-09-13T00:56:50.406Z,14.02
2018-09-13T00:57:50.383Z,13.96
2018-09-13T00:58:50.354Z,13.96
2018-09-13T00:59:50.327Z,13.96
2018-09-13T01:00:50.300Z,13.94
2018-09-13T01:01:50.273Z,13.98
2018-09-13T01:02:50.246Z,14.08
2018-09-13T01:03:50.219Z,14.08
2018-09-13T01:04:50.193Z,14.08
2018-09-13T01:05:50.167Z,14.12
2018-09-13T01:06:50.139Z,14.08
2018-09-13T01:07:50.114Z,13.99
2018-09-13T01:08:50.086Z,14.04
2018-09-13T01:09:50.058Z,13.98
2018-09-13T01:10:50.035Z,13.94
2018-09-13T01:11:50.005Z,14.02
2018-09-13T01:12:49.979Z,13.98
2018-09-13T01:13:49.951Z,14.08
2018-09-13T01:14:49.924Z,14.13
2018-09-13T01:15:49.899Z,14.05
2018-09-13T01:16:49.882Z,14.05
2018-09-13T01:17:49.847Z,14.08
2018-09-13T01:18:49.829Z,14.04
2018-09-13T01:19:49.840Z,14.02
2018-09-13T01:20:49.765Z,13.96
2018-09-13T01:21:49.737Z,13.94
2018-09-13T01:22:49.709Z,13.93
2018-09-13T01:23:49.688Z,13.96
2018-09-13T01:24:49.658Z,13.88
2018-09-13T01:25:49.631Z,13.88
2018-09-13T01:26:49.605Z,13.91
2018-09-13T01:27:49.577Z,13.98
2018-09-13T01:28:49.551Z,13.90
2018-09-13T01:29:49.523Z,13.90
2018-09-13T01:30:49.504Z,13.90
2018-09-13T01:31:49.474Z,13.90
2018-09-13T01:32:49.443Z,13.98
2018-09-13T01:33:49.418Z,13.98
2018-09-13T01:34:49.390Z,14.01
2018-09-13T01:35:49.365Z,13.96
2018-09-13T01:36:49.344Z,13.98
2018-09-13T01:37:49.315Z,14.04
2018-09-13T01:38:49.290Z,14.01
2018-09-13T01:39:49.258Z,14.02
2018-09-13T01:40:49.532Z,13.99
2018-09-13T01:41:49.201Z,13.93
2018-09-13T01:42:49.175Z,13.87
2018-09-13T01:43:49.149Z,13.84
2018-09-13T01:44:49.123Z,13.88
2018-09-13T01:45:49.095Z,13.87
2018-09-13T01:46:49.067Z,13.84
2018-09-13T01:47:49.043Z,13.83
2018-09-13T01:48:49.017Z,13.81
2018-09-13T01:49:48.988Z,13.84
2018-09-13T01:50:48.963Z,13.76
2018-09-13T01:51:48.936Z,13.79
2018-09-13T01:52:48.910Z,13.79
2018-09-13T01:53:48.883Z,13.73
2018-09-13T01:54:48.854Z,13.84
2018-09-13T01:55:48.826Z,13.73
2018-09-13T01:56:48.803Z,13.87
2018-09-13T01:57:48.773Z,13.84
2018-09-13T01:58:48.746Z,13.87
2018-09-13T01:59:48.719Z,13.80
2018-09-13T02:00:48.693Z,13.86
2018-09-13T02:01:48.668Z,13.88
2018-09-13T02:02:48.639Z,13.80
2018-09-13T02:03:48.913Z,13.88
2018-09-13T02:04:48.587Z,13.86
2018-09-13T02:05:48.562Z,13.83
2018-09-13T02:06:48.531Z,13.84
2018-09-13T02:07:48.505Z,13.80
2018-09-13T02:08:48.478Z,13.87
2018-09-13T02:09:48.459Z,13.81
2018-09-13T02:10:48.424Z,13.80
2018-09-13T02:11:48.399Z,13.65
2018-09-13T02:12:48.371Z,13.75
2018-09-13T02:13:48.343Z,13.80
2018-09-13T02:14:48.321Z,13.81
2018-09-13T02:15:48.292Z,13.76
2018-09-13T02:16:48.263Z,13.80
2018-09-13T02:17:48.235Z,13.80
2018-09-13T02:18:48.209Z,13.69
2018-09-13T02:19:48.182Z,13.75
2018-09-13T02:20:48.165Z,13.75
2018-09-13T02:21:48.129Z,13.80
2018-09-13T02:22:48.103Z,13.86
2018-09-13T02:23:48.075Z,13.80
2018-09-13T02:24:48.050Z,13.76
2018-09-13T02:25:48.024Z,13.71
2018-09-13T02:26:47.994Z,13.69
2018-09-13T02:27:47.975Z,13.80
2018-09-13T02:28:47.941Z,13.84
2018-09-13T02:29:47.916Z,13.80
2018-09-13T02:30:47.886Z,13.73
2018-09-13T02:31:47.861Z,13.76
2018-09-13T02:32:47.835Z,13.80
2018-09-13T02:33:47.806Z,13.80
2018-09-13T02:34:47.780Z,13.87
2018-09-13T02:35:47.752Z,13.69
2018-09-13T02:36:47.726Z,13.83
2018-09-13T02:37:47.706Z,13.75
2018-09-13T02:38:47.672Z,13.66
2018-09-13T02:39:47.647Z,13.69
2018-09-13T02:40:47.619Z,13.69
2018-09-13T02:41:47.594Z,13.71
2018-09-13T02:42:47.566Z,13.68
2018-09-13T02:43:47.539Z,13.72
2018-09-13T02:44:47.513Z,13.76
2018-09-13T02:45:47.492Z,13.79
2018-09-13T02:46:47.461Z,13.81
2018-09-13T02:47:47.439Z,13.80
2018-09-13T02:48:47.407Z,13.72
2018-09-13T02:49:47.378Z,13.79
2018-09-13T02:50:47.360Z,13.83
2018-09-13T02:51:47.326Z,13.83
2018-09-13T02:52:47.300Z,13.86
2018-09-13T02:53:47.273Z,13.86
2018-09-13T02:54:47.247Z,13.93
2018-09-13T02:55:47.218Z,13.88
2018-09-13T02:56:47.190Z,13.91
2018-09-13T02:57:47.165Z,13.87
2018-09-13T02:58:47.137Z,13.91
2018-09-13T02:59:47.111Z,13.87
2018-09-13T03:00:47.084Z,13.91
2018-09-13T03:01:47.058Z,13.83
2018-09-13T03:02:47.034Z,13.80
2018-09-13T03:03:47.005Z,13.86
2018-09-13T03:04:46.977Z,13.75
2018-09-13T03:05:46.950Z,13.71
2018-09-13T03:06:46.924Z,13.68
2018-09-13T03:07:46.897Z,13.63
2018-09-13T03:08:46.880Z,13.69
2018-09-13T03:09:46.843Z,13.69
2018-09-13T03:10:46.817Z,13.69
2018-09-13T03:11:46.790Z,13.72
2018-09-13T03:12:46.764Z,13.80
2018-09-13T03:13:46.737Z,13.91
2018-09-13T03:14:46.760Z,13.91
2018-09-13T03:15:46.684Z,13.86
2018-09-13T03:16:46.656Z,13.94
2018-09-13T03:17:46.629Z,13.91
2018-09-13T03:18:46.605Z,13.90
2018-09-13T03:19:46.577Z,13.83
2018-09-13T03:20:46.550Z,13.91
2018-09-13T03:21:46.527Z,13.88
2018-09-13T03:22:46.495Z,13.80
2018-09-13T03:23:46.470Z,13.76
2018-09-13T03:24:46.442Z,13.81
2018-09-13T03:25:46.418Z,13.84
2018-09-13T03:26:46.400Z,13.90
2018-09-13T03:27:46.368Z,13.91
2018-09-13T03:28:46.336Z,13.83
2018-09-13T03:29:46.308Z,13.90
2018-09-13T03:30:46.283Z,13.88
2018-09-13T03:31:46.257Z,13.99
2018-09-13T03:32:46.230Z,13.93
2018-09-13T03:33:46.203Z,13.90
2018-09-13T03:34:46.184Z,13.93
2018-09-13T03:35:46.149Z,13.91
2018-09-13T03:36:46.123Z,13.87
2018-09-13T03:37:46.099Z,13.96
2018-09-13T03:38:46.070Z,13.79
2018-09-13T03:39:46.043Z,13.81
2018-09-13T03:40:46.015Z,13.90
2018-09-13T03:41:45.988Z,13.83
2018-09-13T03:42:45.962Z,13.88
2018-09-13T03:43:45.935Z,13.75
2018-09-13T03:44:45.910Z,13.81
2018-09-13T03:45:45.931Z,13.75
2018-09-13T03:46:45.855Z,13.71
2018-09-13T03:47:45.829Z,13.84
2018-09-13T03:48:45.803Z,13.73
2018-09-13T03:49:45.775Z,13.71
2018-09-13T03:50:45.748Z,13.71
2018-09-13T03:51:45.724Z,13.73
2018-09-13T03:52:45.700Z,13.66
2018-09-13T03:53:45.669Z,13.57
2018-09-13T03:54:45.641Z,13.57
2018-09-13T03:55:45.616Z,13.59
2018-09-13T03:56:45.588Z,13.57
2018-09-13T03:57:45.562Z,13.62
2018-09-13T03:58:45.537Z,13.57
2018-09-13T03:59:45.508Z,13.55
2018-09-13T04:00:45.483Z,13.63
2018-09-13T04:01:45.453Z,13.57
2018-09-13T04:02:45.433Z,13.62
2018-09-13T04:03:45.403Z,13.62
2018-09-13T04:04:45.375Z,13.66
2018-09-13T04:05:45.359Z,13.63
2018-09-13T04:06:45.318Z,13.54
2018-09-13T04:07:45.292Z,13.62
2018-09-13T04:08:45.265Z,13.47
2018-09-13T04:09:45.237Z,13.43
2018-09-13T04:10:45.214Z,13.51
2018-09-13T04:11:45.185Z,13.35
2018-09-13T04:12:45.159Z,13.32
2018-09-13T04:13:45.129Z,13.17
2018-09-13T04:14:45.107Z,13.16
2018-09-13T04:15:45.076Z,13.12
2018-09-13T04:16:45.067Z,13.14
2018-09-13T04:17:45.021Z,13.35
2018-09-13T04:18:45.290Z,13.28
2018-09-13T04:19:44.969Z,13.28
2018-09-13T04:20:44.940Z,13.19
2018-09-13T04:21:44.913Z,13.27
2018-09-13T04:22:44.915Z,13.16
2018-09-13T04:23:44.863Z,13.17
2018-09-13T04:24:44.832Z,13.19
2018-09-13T04:25:44.803Z,13.17
2018-09-13T04:26:44.777Z,13.28
2018-09-13T04:27:44.757Z,13.29
2018-09-13T04:28:44.735Z,13.29
2018-09-13T04:29:44.696Z,13.22
2018-09-13T04:30:44.667Z,13.16
2018-09-13T04:31:44.645Z,13.16
2018-09-13T04:32:44.614Z,13.25
2018-09-13T04:33:44.585Z,13.16
2018-09-13T04:34:44.559Z,13.13
2018-09-13T04:35:44.624Z,13.16
2018-09-13T04:36:44.505Z,13.21
2018-09-13T04:37:44.481Z,13.13
2018-09-13T04:38:44.450Z,13.22
2018-09-13T04:39:44.425Z,13.17
2018-09-13T04:40:44.396Z,13.19
2018-09-13T04:41:44.373Z,13.13
2018-09-13T04:42:44.341Z,13.09
2018-09-13T04:43:44.322Z,13.12
2018-09-13T04:44:44.287Z,13.14
2018-09-13T04:45:44.463Z,13.16
2018-09-13T04:46:44.231Z,13.10
2018-09-13T04:47:44.204Z,13.14
2018-09-13T04:48:44.177Z,13.10
2018-09-13T04:49:44.149Z,13.09
2018-09-13T04:50:44.123Z,13.09
2018-09-13T04:51:44.096Z,12.87
2018-09-13T04:52:44.070Z,12.91
2018-09-13T04:53:44.049Z,12.88
2018-09-13T04:54:44.017Z,12.74
2018-09-13T04:55:43.989Z,12.67
2018-09-13T04:56:43.959Z,12.76
2018-09-13T04:57:43.931Z,12.76
2018-09-13T04:58:43.907Z,12.55
2018-09-13T04:59:44.130Z,12.63
2018-09-13T05:00:43.857Z,12.67
2018-09-13T05:01:43.821Z,12.62
2018-09-13T05:02:43.795Z,12.55
2018-09-13T05:03:43.770Z,12.74
2018-09-13T05:04:43.739Z,12.85
2018-09-13T05:05:43.712Z,12.77
2018-09-13T05:06:43.788Z,12.79
2018-09-13T05:07:43.877Z,12.77
2018-09-13T05:08:43.633Z,12.88
2018-09-13T05:09:43.605Z,12.88
2018-09-13T05:10:43.575Z,12.85
2018-09-13T05:11:43.548Z,12.99
2018-09-13T05:12:43.537Z,13.06
2018-09-13T05:13:43.498Z,13.01
2018-09-13T05:14:43.468Z,12.84
2018-09-13T05:15:43.440Z,12.89
2018-09-13T05:16:43.411Z,13.06
2018-09-13T05:17:43.388Z,12.94
2018-09-13T05:18:43.357Z,12.88
2018-09-13T05:19:43.328Z,12.87
2018-09-13T05:20:43.301Z,12.81
2018-09-13T05:21:43.276Z,12.71
2018-09-13T05:22:43.246Z,12.76
2018-09-13T05:23:43.219Z,12.92
2018-09-13T05:24:43.195Z,12.99
2018-09-13T05:25:43.163Z,12.99
2018-09-13T05:26:43.139Z,12.80
2018-09-13T05:27:43.108Z,12.73
2018-09-13T05:28:43.082Z,12.79
2018-09-13T05:29:43.054Z,12.99
2018-09-13T05:30:43.025Z,12.87
2018-09-13T05:31:43.059Z,12.95
2018-09-13T05:32:42.982Z,13.01
2018-09-13T05:33:42.944Z,12.95
2018-09-13T05:34:42.917Z,12.96
2018-09-13T05:35:42.889Z,12.98
2018-09-13T05:36:42.863Z,13.10
2018-09-13T05:37:42.835Z,13.19
2018-09-13T05:38:42.833Z,13.53
2018-09-13T05:39:42.782Z,13.75
2018-09-13T05:40:42.752Z,14.26
2018-09-13T05:41:42.928Z,14.48
2018-09-13T05:42:42.699Z,14.83
2018-09-13T05:43:42.671Z,15.01
2018-09-13T05:44:42.773Z,15.43
2018-09-13T05:45:42.617Z,15.62
2018-09-13T05:46:42.589Z,15.66
2018-09-13T05:47:42.563Z,15.37
2018-09-13T05:48:42.538Z,15.77
2018-09-13T05:49:42.509Z,15.89
2018-09-13T05:50:42.484Z,15.74
2018-09-13T05:51:42.456Z,15.96
2018-09-13T05:52:42.432Z,15.81
2018-09-13T05:53:42.405Z,16.01
2018-09-13T05:54:42.388Z,16.01
2018-09-13T05:55:42.359Z,16.03
2018-09-13T05:56:42.324Z,16.16
2018-09-13T05:57:42.297Z,16.40
2018-09-13T05:58:42.272Z,16.45
2018-09-13T05:59:42.246Z,16.54
2018-09-13T06:00:42.220Z,16.87
2018-09-13T06:01:42.195Z,17.00
2018-09-13T06:02:42.169Z,17.15
2018-09-13T06:03:42.345Z,16.98
2018-09-13T06:04:42.117Z,17.15
2018-09-13T06:05:42.091Z,17.10
2018-09-13T06:06:42.066Z,17.38
2018-09-13T06:07:42.041Z,17.35
2018-09-13T06:08:42.016Z,17.70
2018-09-13T06:09:41.993Z,17.83
2018-09-13T06:10:41.965Z,18.17
2018-09-13T06:11:41.940Z,18.46
2018-09-13T06:12:41.915Z,18.56
2018-09-13T06:13:42.021Z,18.72
2018-09-13T06:14:41.866Z,18.79
2018-09-13T06:15:41.844Z,18.56
2018-09-13T06:16:41.817Z,18.71
2018-09-13T06:17:41.791Z,18.72
2018-09-13T06:18:41.970Z,18.75
2018-09-13T06:19:41.757Z,18.93
2018-09-13T06:20:41.921Z,19.12
2018-09-13T06:21:41.896Z,19.32
2018-09-13T06:22:41.872Z,19.43
2018-09-13T06:23:41.848Z,19.75
2018-09-13T06:25:23.976Z,20.33
2018-09-13T06:26:23.963Z,20.13
2018-09-13T06:27:23.928Z,20.63
2018-09-13T06:28:23.905Z,20.64
2018-09-13T06:29:23.904Z,20.83
2018-09-13T06:30:23.654Z,21.15
2018-09-13T06:31:23.835Z,21.52
2018-09-13T06:32:23.608Z,21.63
2018-09-13T06:33:23.788Z,20.88
2018-09-13T06:34:23.561Z,20.82
2018-09-13T06:35:23.740Z,21.03
2018-09-13T06:36:23.606Z,20.93
2018-09-13T06:37:23.695Z,20.90
2018-09-13T06:38:23.551Z,20.83
2018-09-13T06:39:23.447Z,21.26
2018-09-13T06:40:23.626Z,21.36
2018-09-13T06:41:23.607Z,21.03
2018-09-13T06:42:23.614Z,20.96
2018-09-13T06:43:24.413Z,20.90
2018-09-13T06:44:23.536Z,20.50
2018-09-13T06:45:23.514Z,20.33
2018-09-13T06:46:23.490Z,20.56
2018-09-13T06:47:23.473Z,21.08
2018-09-13T06:48:23.454Z,21.18
2018-09-13T06:49:23.438Z,21.55
2018-09-13T06:50:23.199Z,21.43
2018-09-13T06:51:26.204Z,21.67
2018-09-13T06:52:23.359Z,21.45
2018-09-13T06:53:23.334Z,21.40
2018-09-13T06:54:23.314Z,21.61
2018-09-13T06:55:23.090Z,21.89
2018-09-13T07:05:31.959Z,22.35
2018-09-13T07:06:31.034Z,22.29
2018-09-13T07:07:31.012Z,22.51
2018-09-13T07:08:30.991Z,22.69
2018-09-13T07:09:30.968Z,22.69
2018-09-13T07:10:30.946Z,22.51
2018-09-13T07:11:30.976Z,22.15
2018-09-13T07:12:30.913Z,22.27
2018-09-13T07:13:30.890Z,22.99
2018-09-13T07:14:31.064Z,23.14
2018-09-13T07:15:30.849Z,23.21
2018-09-13T07:16:30.821Z,23.12
2018-09-13T07:17:30.804Z,23.18
2018-09-13T07:18:30.781Z,23.00
2018-09-13T07:19:30.762Z,23.18
2018-09-13T07:20:30.940Z,23.34
2018-09-13T07:21:30.718Z,23.49
2018-09-13T07:22:30.697Z,23.42
2018-09-13T07:23:30.720Z,23.31
2018-09-13T07:24:33.496Z,23.22
2018-09-13T07:25:30.636Z,23.31
2018-09-13T07:26:30.820Z,23.00
2018-09-13T07:32:25.880Z,22.54
2018-09-13T07:33:25.863Z,22.51
2018-09-13T07:34:25.636Z,22.38
2018-09-13T07:35:25.617Z,22.66
2018-09-13T07:36:25.800Z,22.89
2018-09-13T07:37:25.780Z,23.47
2018-09-13T07:38:25.558Z,23.71
2018-09-13T07:40:07.894Z,22.94
2018-09-13T07:41:07.875Z,22.76
2018-09-13T07:42:07.657Z,22.97
2018-09-13T07:43:07.635Z,22.89
2018-09-13T07:44:07.618Z,22.67
2018-09-13T07:45:07.594Z,23.21
2018-09-13T07:46:49.938Z,23.50
2018-09-13T07:47:49.716Z,23.45
2018-09-13T07:48:49.693Z,22.94
2018-09-13T07:49:49.974Z,22.97
2018-09-13T07:50:49.652Z,23.21
2018-09-13T07:57:27.882Z,23.45
2018-09-13T07:58:26.853Z,23.31
2018-09-13T07:59:26.834Z,23.35
2018-09-13T08:00:26.815Z,23.92
2018-09-13T08:04:15.621Z,24.80
2018-09-13T08:05:15.600Z,23.93
2018-09-13T08:06:15.380Z,24.06
2018-09-13T08:07:15.561Z,23.81
2018-09-13T08:09:01.533Z,24.83
2018-09-13T08:09:57.684Z,25.54
2018-09-13T08:10:57.661Z,25.30
2018-09-13T08:11:57.524Z,24.16
2018-09-13T08:12:57.427Z,24.51
2018-09-13T08:18:53.912Z,24.29
2018-09-13T08:19:52.476Z,24.51
2018-09-13T08:20:52.657Z,24.90
2018-09-13T08:21:52.454Z,24.98
2018-09-13T08:22:52.632Z,24.92
2018-09-13T08:23:52.607Z,25.48
2018-09-13T08:24:52.589Z,25.67
2018-09-13T08:26:34.728Z,24.46
2018-09-13T08:31:05.492Z,21.24
2018-09-13T08:32:05.270Z,20.87
2018-09-13T08:33:47.611Z,20.50
2018-09-13T08:34:47.881Z,20.10
2018-09-13T08:35:47.573Z,20.51
2018-09-13T08:36:47.353Z,21.73
2018-09-13T08:37:47.333Z,22.51
2018-09-13T08:38:47.313Z,23.47
2018-09-13T08:39:47.315Z,23.96
2018-09-13T08:40:47.281Z,24.70
2018-09-13T08:41:47.259Z,25.12
2018-09-13T08:42:47.241Z,24.93
2018-09-13T08:43:47.231Z,25.42
2018-09-13T08:44:47.206Z,24.98
2018-09-13T08:45:47.186Z,23.31
2018-09-13T08:46:47.167Z,22.86
2018-09-13T08:47:47.157Z,22.48
2018-09-13T08:48:47.134Z,22.12
2018-09-13T08:49:47.115Z,22.88
2018-09-13T08:50:47.100Z,23.78
2018-09-13T08:51:47.080Z,24.42
2018-09-13T08:53:29.420Z,23.15
2018-09-13T08:54:29.201Z,22.88
2018-09-13T08:55:29.183Z,22.30
2018-09-13T08:56:29.165Z,22.26
2018-09-13T08:57:29.147Z,22.85
2018-09-13T08:58:29.128Z,23.21
2018-09-13T08:59:30.328Z,24.23
2018-09-13T09:00:29.301Z,24.55
2018-09-13T09:13:25.970Z,21.26
2018-09-13T09:14:25.728Z,20.83
2018-09-13T09:15:25.903Z,20.27
2018-09-13T09:16:25.883Z,20.22
2018-09-13T09:17:25.862Z,19.87
2018-09-13T09:18:25.714Z,19.55
2018-09-13T09:19:25.824Z,19.67
2018-09-13T09:21:08.981Z,19.62
2018-09-13T09:22:50.099Z,19.06
2018-09-13T09:23:50.077Z,18.72
2018-09-13T09:24:50.056Z,18.66
2018-09-13T09:25:50.039Z,18.17
2018-09-13T09:26:50.023Z,18.04
2018-09-13T09:27:49.793Z,17.95
2018-09-13T09:28:49.832Z,17.96
2018-09-13T09:29:50.093Z,17.98
2018-09-13T09:30:49.935Z,17.86
2018-09-13T09:31:49.714Z,17.83
2018-09-13T09:32:49.690Z,17.86
2018-09-13T09:33:49.672Z,17.83
2018-09-13T09:34:49.750Z,17.68
2018-09-13T09:35:49.628Z,17.74
2018-09-13T09:36:49.605Z,17.53
2018-09-13T09:38:31.938Z,17.79
2018-09-13T09:39:31.719Z,17.94
2018-09-13T09:40:31.924Z,17.96
2018-09-13T09:42:14.035Z,19.20
2018-09-13T09:43:14.007Z,20.25
2018-09-13T09:44:13.794Z,20.87
2018-09-13T09:45:13.968Z,21.86
2018-09-13T09:46:13.938Z,22.08
2018-09-13T09:47:13.726Z,22.67
2018-09-13T09:48:14.050Z,23.72
2018-09-13T09:49:13.875Z,23.99
2018-09-13T09:50:13.895Z,23.53
2018-09-13T09:51:15.050Z,23.63
2018-09-13T09:52:14.666Z,23.45
2018-09-13T09:53:13.795Z,23.45
2018-09-13T09:54:13.572Z,24.04
2018-09-13T09:55:13.757Z,24.94
2018-09-13T09:56:13.656Z,25.35
2018-09-13T09:57:13.517Z,25.29
2018-09-13T09:58:13.700Z,25.08
2018-09-13T09:59:13.682Z,24.80
2018-09-13T10:03:02.345Z,23.68
2018-09-13T10:04:02.078Z,23.49
2018-09-13T10:05:02.049Z,23.26
2018-09-13T10:06:02.234Z,23.37
2018-09-13T10:07:02.022Z,23.64
2018-09-13T10:08:01.997Z,23.69
2018-09-13T10:09:44.374Z,24.00
2018-09-13T10:10:44.348Z,24.56
2018-09-13T10:12:26.461Z,23.49
2018-09-13T10:13:26.243Z,23.47
2018-09-13T10:14:26.226Z,23.41
2018-09-13T10:15:26.589Z,23.84
2018-09-13T10:16:26.193Z,24.26
2018-09-13T10:17:26.380Z,23.68
2018-09-13T10:18:28.782Z,23.31
2018-09-13T10:19:26.345Z,23.81
2018-09-13T10:20:26.329Z,23.45
2018-09-13T10:21:26.363Z,23.18
2018-09-13T10:22:26.294Z,22.45
2018-09-13T10:23:26.077Z,21.93
2018-09-13T10:24:26.063Z,21.91
2018-09-13T10:25:26.044Z,22.86
2018-09-13T10:26:26.228Z,23.89
2018-09-13T10:27:26.010Z,24.42
2018-09-13T10:28:26.195Z,24.55
2018-09-13T10:29:26.258Z,24.19
2018-09-13T10:30:26.163Z,24.12
2018-09-13T10:31:26.145Z,23.64
2018-09-13T10:32:25.940Z,23.37
2018-09-13T10:33:25.913Z,24.08
2018-09-13T10:34:25.893Z,24.04
2018-09-13T10:35:25.877Z,23.01
2018-09-13T10:36:25.865Z,22.51
2018-09-13T10:37:25.842Z,23.14
2018-09-13T10:38:25.825Z,22.89
2018-09-13T10:39:25.816Z,23.31
2018-09-13T10:40:25.793Z,23.57
2018-09-13T10:41:25.781Z,23.90
2018-09-13T10:42:25.760Z,23.32
2018-09-13T10:43:25.745Z,23.00
2018-09-13T10:44:25.732Z,23.38
2018-09-13T10:45:25.914Z,24.04
2018-09-13T10:46:25.899Z,23.75
2018-09-13T10:47:25.691Z,23.87
2018-09-13T10:48:25.673Z,24.08
2018-09-13T10:49:25.660Z,24.77
2018-09-13T10:50:25.646Z,25.64
2018-09-13T10:51:25.822Z,26.24
2018-09-13T10:52:25.906Z,26.04
2018-09-13T10:53:25.787Z,26.56
2018-09-13T10:54:26.834Z,26.11
2018-09-13T10:55:28.536Z,25.59
2018-09-13T10:56:25.549Z,24.84
2018-09-13T10:57:25.523Z,24.83
2018-09-13T10:58:25.520Z,24.97
2018-09-13T10:59:25.494Z,25.66
2018-09-13T11:00:25.478Z,25.83
2018-09-13T11:01:25.459Z,25.71
2018-09-13T11:02:25.442Z,24.64
2018-09-13T11:03:25.428Z,22.72
2018-09-13T11:04:32.484Z,21.55
2018-09-13T11:05:25.598Z,20.88
2018-09-13T11:06:28.205Z,20.40
2018-09-13T11:07:25.565Z,20.75
2018-09-13T11:08:25.552Z,21.34
2018-09-13T11:09:25.538Z,22.27
2018-09-13T11:10:25.364Z,23.38
2018-09-13T11:11:25.454Z,24.63
2018-09-13T11:12:25.684Z,24.70
2018-09-13T11:13:26.080Z,25.09
2018-09-13T11:15:49.761Z,25.72
2018-09-13T11:16:49.748Z,25.75
2018-09-13T11:17:49.729Z,26.20
2018-09-13T11:18:49.712Z,26.44
2018-09-13T11:19:49.696Z,26.49
2018-09-13T11:20:49.680Z,26.71
2018-09-13T11:21:49.621Z,26.91
2018-09-13T11:22:49.649Z,27.48
2018-09-13T11:23:49.633Z,26.98
2018-09-13T11:24:49.417Z,25.79
2018-09-13T11:25:49.602Z,25.97
2018-09-13T11:26:49.396Z,26.16
2018-09-13T11:27:49.577Z,26.56
2018-09-13T11:28:49.573Z,25.53
2018-09-13T11:30:31.718Z,26.08
2018-09-13T11:31:34.309Z,26.20
2018-09-13T11:32:31.671Z,26.72
2018-09-13T11:38:26.773Z,25.61
2018-09-13T11:41:33.234Z,26.19
2018-09-13T11:42:33.219Z,26.13
2018-09-13T11:43:33.004Z,26.24
2018-09-13T11:44:33.191Z,26.24
2018-09-13T11:45:33.176Z,26.57
2018-09-13T11:47:15.321Z,26.96
2018-09-13T11:51:03.945Z,24.87
2018-09-13T11:52:03.729Z,24.63
2018-09-13T11:53:47.289Z,24.60
2018-09-13T11:54:46.062Z,24.12
2018-09-13T11:55:46.092Z,23.68
2018-09-13T11:56:46.033Z,23.21
2018-09-13T11:57:45.823Z,22.52
2018-09-13T11:58:46.004Z,22.26
2018-09-13T11:59:45.991Z,22.42
2018-09-13T12:01:28.139Z,22.52
2018-09-13T12:03:10.280Z,23.50
2018-09-13T12:04:10.266Z,23.09
2018-09-13T12:05:10.251Z,23.34
2018-09-13T12:06:55.017Z,22.60
2018-09-13T12:07:55.003Z,23.14
2018-09-13T12:09:34.579Z,24.30
2018-09-13T12:11:16.671Z,24.49
2018-09-13T12:12:16.656Z,24.60
2018-09-13T12:13:16.641Z,24.80
2018-09-13T12:14:16.628Z,24.30
2018-09-13T12:15:16.418Z,23.74
2018-09-13T12:16:16.603Z,23.00
2018-09-13T12:17:16.381Z,22.69
2018-09-13T12:18:16.596Z,22.27
2018-09-13T12:19:58.713Z,22.59
2018-09-13T12:21:40.862Z,21.22
2018-09-13T12:22:40.841Z,21.09
2018-09-13T12:23:40.829Z,20.66
2018-09-13T12:24:41.213Z,20.61
2018-09-13T12:25:40.792Z,20.58
2018-09-13T12:26:43.194Z,20.76
2018-09-13T12:32:35.897Z,21.75
2018-09-13T12:35:00.147Z,21.49
2018-09-13T12:36:00.128Z,21.34
2018-09-13T12:36:59.907Z,21.52
2018-09-13T12:40:06.564Z,20.82
2018-09-13T12:46:44.088Z,19.72
2018-09-13T12:47:44.367Z,19.75
2018-09-13T12:49:25.904Z,19.92
2018-09-13T12:52:32.332Z,20.00
2018-09-13T12:53:32.109Z,19.92
2018-09-13T12:54:32.091Z,20.22
2018-09-13T12:55:32.067Z,20.23
2018-09-13T13:07:04.553Z,22.39
2018-09-13T13:08:04.534Z,22.52
2018-09-13T13:09:04.308Z,22.54
2018-09-13T13:10:04.289Z,22.51
2018-09-13T13:11:04.268Z,21.52
2018-09-13T13:12:04.451Z,21.45
2018-09-13T13:13:04.232Z,21.37
2018-09-13T13:14:04.213Z,21.45
2018-09-13T13:15:04.196Z,21.24
2018-09-13T13:16:04.175Z,20.91
2018-09-13T13:17:04.208Z,20.60
2018-09-13T13:18:04.136Z,20.82
2018-09-13T13:19:04.118Z,20.90
2018-09-13T13:20:04.099Z,20.73
2018-09-13T13:21:04.086Z,20.64
2018-09-13T13:22:04.063Z,20.53
2018-09-13T13:23:04.044Z,20.35
2018-09-13T13:24:04.024Z,20.05
2018-09-13T13:25:04.010Z,20.10
2018-09-13T13:26:03.985Z,20.22
2018-09-13T13:27:03.982Z,20.48
2018-09-13T13:28:03.947Z,20.51
2018-09-13T13:29:03.933Z,20.38
2018-09-13T13:30:03.908Z,20.46
2018-09-13T13:31:03.889Z,20.33
2018-09-13T13:32:04.074Z,20.38
2018-09-13T13:33:03.849Z,20.20
2018-09-13T13:34:04.032Z,19.97
2018-09-13T13:35:03.809Z,20.02
2018-09-13T13:36:03.788Z,20.20
2018-09-13T13:37:03.971Z,20.10
2018-09-13T13:38:03.957Z,20.04
2018-09-13T13:39:03.728Z,20.12
2018-09-13T13:40:03.910Z,20.07
2018-09-13T13:41:03.917Z,19.97
2018-09-13T13:42:03.868Z,20.04
2018-09-13T13:43:03.846Z,20.02
2018-09-13T13:44:03.893Z,20.13
2018-09-13T13:45:03.615Z,20.22
2018-09-13T13:46:03.584Z,20.33
2018-09-13T13:47:03.561Z,20.31
2018-09-13T13:48:03.541Z,20.56
2018-09-13T13:49:03.521Z,20.69
2018-09-13T13:50:03.498Z,20.82
2018-09-13T13:51:03.477Z,21.12
2018-09-13T13:52:03.456Z,21.31
2018-09-13T13:53:03.435Z,21.30
2018-09-13T13:54:03.414Z,21.19
2018-09-13T13:55:03.403Z,21.36
2018-09-13T13:56:03.372Z,21.37
2018-09-13T13:57:03.352Z,21.38
2018-09-13T13:58:03.334Z,21.27
2018-09-13T13:59:03.309Z,20.88
2018-09-13T14:00:03.291Z,20.78
2018-09-13T14:01:03.275Z,20.83
2018-09-13T14:02:03.249Z,20.75
2018-09-13T14:03:03.232Z,20.79
2018-09-13T14:04:03.210Z,20.83
2018-09-13T14:05:03.188Z,20.85
2018-09-13T14:06:03.167Z,20.82
2018-09-13T14:07:03.146Z,20.50
2018-09-13T14:08:03.125Z,20.54
2018-09-13T14:09:03.105Z,20.64
2018-09-13T14:10:03.128Z,20.66
2018-09-13T14:11:03.063Z,20.69
2018-09-13T14:12:03.040Z,20.69
2018-09-13T14:13:03.023Z,20.76
2018-09-13T14:14:03.001Z,20.58
2018-09-13T14:15:02.980Z,20.53
2018-09-13T14:16:02.958Z,20.38
2018-09-13T14:17:02.937Z,20.27
2018-09-13T14:18:02.920Z,20.23
2018-09-13T14:19:02.896Z,20.12
2018-09-13T14:20:03.075Z,20.08
2018-09-13T14:21:02.853Z,20.01
2018-09-13T14:22:02.832Z,20.17
2018-09-13T14:23:02.819Z,20.00
2018-09-13T14:24:02.796Z,20.22
2018-09-13T14:25:06.604Z,20.27
2018-09-13T14:26:02.754Z,20.19
2018-09-13T14:27:02.930Z,20.16
2018-09-13T14:28:02.709Z,20.05
2018-09-13T14:29:02.683Z,20.16
2018-09-13T14:30:02.913Z,20.38
2018-09-13T14:31:02.640Z,20.40
2018-09-13T14:32:02.821Z,20.34
2018-09-13T14:33:02.598Z,20.35